createdAt,value
2023-03-10T00:00:24.459Z,16.70
2023-03-10T00:01:24.481Z,11.60
2023-03-10T00:02:24.442Z,17.00
2023-03-10T00:03:24.447Z,15.30
2023-03-10T00:04:24.521Z,15.20
2023-03-10T00:05:24.451Z,14.60
2023-03-10T00:06:24.434Z,17.00
2023-03-10T00:07:24.398Z,12.60
2023-03-10T00:08:27.006Z,11.50
2023-03-10T00:09:24.389Z,14.20
2023-03-10T00:10:24.401Z,11.60
2023-03-10T00:11:24.413Z,13.10
2023-03-10T00:12:24.359Z,13.00
2023-03-10T00:13:24.355Z,18.40
2023-03-10T00:14:24.352Z,13.20
2023-03-10T00:15:24.364Z,11.90
2023-03-10T00:16:24.344Z,13.70
2023-03-10T00:17:24.341Z,10.30
2023-03-10T00:18:24.309Z,13.20
2023-03-10T00:19:24.311Z,10.70
2023-03-10T00:20:24.296Z,9.00
2023-03-10T00:21:24.319Z,10.40
2023-03-10T00:22:24.278Z,11.90
2023-03-10T00:23:24.275Z,14.90
2023-03-10T00:24:24.264Z,10.50
2023-03-10T00:25:24.273Z,12.40
2023-03-10T00:26:24.249Z,14.00
2023-03-10T00:27:24.266Z,13.00
2023-03-10T00:28:24.233Z,8.70
2023-03-10T00:29:24.223Z,13.80
2023-03-10T00:30:24.218Z,11.00
2023-03-10T00:31:24.254Z,11.10
2023-03-10T00:32:24.259Z,12.00
2023-03-10T00:33:24.198Z,13.00
2023-03-10T00:34:24.192Z,10.90
2023-03-10T00:35:24.186Z,13.60
2023-03-10T00:36:24.171Z,8.50
2023-03-10T00:37:24.186Z,9.90
2023-03-10T00:38:24.159Z,12.20
2023-03-10T00:39:24.149Z,12.40
2023-03-10T00:40:24.148Z,9.60
2023-03-10T00:41:24.138Z,13.00
2023-03-10T00:42:24.161Z,12.40
2023-03-10T00:43:24.107Z,11.10
2023-03-10T00:44:25.118Z,13.80
2023-03-10T00:45:24.113Z,11.60
2023-03-10T00:46:24.224Z,10.90
2023-03-10T00:47:24.120Z,9.20
2023-03-10T00:48:24.081Z,10.70
2023-03-10T00:49:24.076Z,8.80
2023-03-10T00:50:24.080Z,8.80
2023-03-10T00:51:24.062Z,9.80
2023-03-10T00:52:24.076Z,10.80
2023-03-10T00:53:24.037Z,9.40
2023-03-10T00:54:24.033Z,12.80
2023-03-10T00:55:24.026Z,7.40
2023-03-10T00:56:24.012Z,11.80
2023-03-10T00:57:24.037Z,7.00
2023-03-10T00:58:24.000Z,12.70
2023-03-10T00:59:23.987Z,10.70
2023-03-10T01:00:23.993Z,11.60
2023-03-10T01:01:23.992Z,13.40
2023-03-10T01:02:24.007Z,6.60
2023-03-10T01:03:23.959Z,7.70
2023-03-10T01:04:23.987Z,9.50
2023-03-10T01:05:23.946Z,7.90
2023-03-10T01:06:23.940Z,7.00
2023-03-10T01:07:23.959Z,13.60
2023-03-10T01:08:23.919Z,12.10
2023-03-10T01:09:23.908Z,8.60
2023-03-10T01:10:23.907Z,10.70
2023-03-10T01:11:23.897Z,8.40
2023-03-10T01:12:23.906Z,9.00
2023-03-10T01:13:24.876Z,8.90
2023-03-10T01:14:23.877Z,8.40
2023-03-10T01:15:23.869Z,9.00
2023-03-10T01:16:23.967Z,7.90
2023-03-10T01:17:23.875Z,6.60
2023-03-10T01:18:23.901Z,7.30
2023-03-10T01:19:23.833Z,9.90
2023-03-10T01:20:23.830Z,7.60
2023-03-10T01:21:23.823Z,6.80
2023-03-10T01:22:23.839Z,7.40
2023-03-10T01:23:23.801Z,10.80
2023-03-10T01:24:23.795Z,8.40
2023-03-10T01:25:23.790Z,10.30
2023-03-10T01:26:23.779Z,8.30
2023-03-10T01:27:23.788Z,6.40
2023-03-10T01:28:23.763Z,10.00
2023-03-10T01:29:23.757Z,7.80
2023-03-10T01:30:23.744Z,5.70
2023-03-10T01:31:23.790Z,7.40
2023-03-10T01:32:23.788Z,7.60
2023-03-10T01:33:23.754Z,10.90
2023-03-10T01:34:23.728Z,7.80
2023-03-10T01:35:23.698Z,5.90
2023-03-10T01:36:23.710Z,6.10
2023-03-10T01:37:23.682Z,8.80
2023-03-10T01:38:23.701Z,6.00
2023-03-10T01:39:23.669Z,9.00
2023-03-10T01:40:23.669Z,8.40
2023-03-10T01:41:23.680Z,5.90
2023-03-10T01:42:23.650Z,8.50
2023-03-10T01:43:23.666Z,6.00
2023-03-10T01:44:23.633Z,7.40
2023-03-10T01:45:23.629Z,9.20
2023-03-10T01:46:23.652Z,7.40
2023-03-10T01:47:23.609Z,5.20
2023-03-10T01:48:23.634Z,9.60
2023-03-10T01:49:23.600Z,7.40
2023-03-10T01:50:23.583Z,7.10
2023-03-10T01:51:23.571Z,4.10
2023-03-10T01:52:23.568Z,5.90
2023-03-10T01:53:23.584Z,3.70
2023-03-10T01:54:23.553Z,6.40
2023-03-10T01:55:23.545Z,7.20
2023-03-10T01:56:23.538Z,5.00
2023-03-10T01:57:23.549Z,5.90
2023-03-10T01:58:23.542Z,6.40
2023-03-10T01:59:23.504Z,5.00
2023-03-10T02:00:23.499Z,5.90
2023-03-10T02:01:23.492Z,3.50
2023-03-10T02:02:23.596Z,5.20
2023-03-10T02:03:23.502Z,5.50
2023-03-10T02:04:23.481Z,5.70
2023-03-10T02:05:23.464Z,3.80
2023-03-10T02:06:23.444Z,3.60
2023-03-10T02:07:23.444Z,4.60
2023-03-10T02:08:23.465Z,4.70
2023-03-10T02:09:23.425Z,2.40
2023-03-10T02:10:23.426Z,3.50
2023-03-10T02:11:23.414Z,5.90
2023-03-10T02:12:23.408Z,4.60
2023-03-10T02:13:23.424Z,6.70
2023-03-10T02:14:23.389Z,5.70
2023-03-10T02:15:23.377Z,5.90
2023-03-10T02:16:23.457Z,4.60
2023-03-10T02:17:23.489Z,7.00
2023-03-10T02:18:23.383Z,5.20
2023-03-10T02:19:23.342Z,4.60
2023-03-10T02:20:23.339Z,3.90
2023-03-10T02:21:23.345Z,4.40
2023-03-10T02:22:23.329Z,3.70
2023-03-10T02:23:23.344Z,4.00
2023-03-10T02:24:23.316Z,4.50
2023-03-10T02:25:23.312Z,3.20
2023-03-10T02:26:23.294Z,3.80
2023-03-10T02:27:23.288Z,2.50
2023-03-10T02:28:23.304Z,3.20
2023-03-10T02:29:23.271Z,4.40
2023-03-10T02:30:23.275Z,4.20
2023-03-10T02:31:23.276Z,5.20
2023-03-10T02:32:23.314Z,5.50
2023-03-10T02:33:23.272Z,2.70
2023-03-10T02:34:23.243Z,2.10
2023-03-10T02:35:23.234Z,2.70
2023-03-10T02:36:23.229Z,3.20
2023-03-10T02:37:23.228Z,3.50
2023-03-10T02:38:23.232Z,3.40
2023-03-10T02:39:23.204Z,3.90
2023-03-10T02:40:23.202Z,2.90
2023-03-10T02:41:23.186Z,3.40
2023-03-10T02:42:23.171Z,4.00
2023-03-10T02:43:23.196Z,2.30
2023-03-10T02:44:23.162Z,3.30
2023-03-10T02:45:23.180Z,3.00
2023-03-10T02:46:23.149Z,2.20
2023-03-10T02:47:23.137Z,2.40
2023-03-10T02:48:23.161Z,2.50
2023-03-10T02:49:23.130Z,2.20
2023-03-10T02:50:23.114Z,2.60
2023-03-10T02:51:23.106Z,1.70
2023-03-10T02:52:23.105Z,3.70
2023-03-10T02:53:23.117Z,1.70
2023-03-10T02:54:23.084Z,4.60
2023-03-10T02:55:23.069Z,2.40
2023-03-10T02:56:23.066Z,1.40
2023-03-10T02:57:23.061Z,2.00
2023-03-10T02:58:23.050Z,3.90
2023-03-10T02:59:23.056Z,1.40
2023-03-10T03:00:23.028Z,1.80
2023-03-10T03:01:23.078Z,3.40
2023-03-10T03:02:23.008Z,3.50
2023-03-10T03:03:23.008Z,2.00
2023-03-10T03:04:23.013Z,2.30
2023-03-10T03:05:23.998Z,3.30
2023-03-10T03:06:22.982Z,2.10
2023-03-10T03:07:22.969Z,1.30
2023-03-10T03:08:22.965Z,2.20
2023-03-10T03:09:22.993Z,2.90
2023-03-10T03:10:22.960Z,2.60
2023-03-10T03:11:22.943Z,2.90
2023-03-10T03:12:22.928Z,0.90
2023-03-10T03:13:22.932Z,3.00
2023-03-10T03:14:22.949Z,2.30
2023-03-10T03:15:22.909Z,1.90
2023-03-10T03:16:22.943Z,3.00
2023-03-10T03:17:22.894Z,2.90
2023-03-10T03:18:22.887Z,2.20
2023-03-10T03:19:22.900Z,3.50
2023-03-10T03:20:22.870Z,1.50
2023-03-10T03:21:22.861Z,3.80
2023-03-10T03:22:22.853Z,2.40
2023-03-10T03:23:22.838Z,2.40
2023-03-10T03:24:22.865Z,2.00
2023-03-10T03:25:22.828Z,2.10
2023-03-10T03:26:22.835Z,4.90
2023-03-10T03:27:22.810Z,2.80
2023-03-10T03:28:22.806Z,2.20
2023-03-10T03:29:22.834Z,3.30
2023-03-10T03:30:22.794Z,3.30
2023-03-10T03:31:22.816Z,2.20
2023-03-10T03:32:22.787Z,2.50
2023-03-10T03:33:22.762Z,3.60
2023-03-10T03:34:22.777Z,2.00
2023-03-10T03:35:22.745Z,2.50
2023-03-10T03:36:22.729Z,1.10
2023-03-10T03:37:22.732Z,2.00
2023-03-10T03:38:22.722Z,2.50
2023-03-10T03:39:22.809Z,2.40
2023-03-10T03:40:22.711Z,2.50
2023-03-10T03:41:22.705Z,2.10
2023-03-10T03:42:22.690Z,1.10
2023-03-10T03:43:22.684Z,2.90
2023-03-10T03:44:22.700Z,1.50
2023-03-10T03:45:22.667Z,2.50
2023-03-10T03:46:22.716Z,1.20
2023-03-10T03:47:22.647Z,2.10
2023-03-10T03:48:22.648Z,2.20
2023-03-10T03:49:22.670Z,3.30
2023-03-10T03:50:22.640Z,3.20
2023-03-10T03:51:22.618Z,1.00
2023-03-10T03:52:22.610Z,2.40
2023-03-10T03:53:22.605Z,1.60
2023-03-10T03:54:22.639Z,3.70
2023-03-10T03:55:22.610Z,2.30
2023-03-10T03:56:22.584Z,2.70
2023-03-10T03:57:22.576Z,1.90
2023-03-10T03:58:22.572Z,3.20
2023-03-10T03:59:22.597Z,2.50
2023-03-10T04:00:22.548Z,1.30
2023-03-10T04:01:22.549Z,1.50
2023-03-10T04:02:22.582Z,1.80
2023-03-10T04:03:22.581Z,2.00
2023-03-10T04:04:22.544Z,2.30
2023-03-10T04:05:22.511Z,1.80
2023-03-10T04:06:22.503Z,2.10
2023-03-10T04:07:22.491Z,1.00
2023-03-10T04:08:22.489Z,2.50
2023-03-10T04:09:22.498Z,3.30
2023-03-10T04:10:23.475Z,1.70
2023-03-10T04:11:22.459Z,1.00
2023-03-10T04:12:22.453Z,1.40
2023-03-10T04:13:22.454Z,1.60
2023-03-10T04:14:22.467Z,2.60
2023-03-10T04:15:22.457Z,1.50
2023-03-10T04:16:22.427Z,1.00
2023-03-10T04:17:22.426Z,0.60
2023-03-10T04:18:22.405Z,2.50
2023-03-10T04:19:22.436Z,1.40
2023-03-10T04:20:22.412Z,1.60
2023-03-10T04:21:22.396Z,2.10
2023-03-10T04:22:22.389Z,1.20
2023-03-10T04:23:22.376Z,1.80
2023-03-10T04:24:22.394Z,2.50
2023-03-10T04:25:22.361Z,1.20
2023-03-10T04:26:22.357Z,1.70
2023-03-10T04:27:22.355Z,1.30
2023-03-10T04:28:22.332Z,2.70
2023-03-10T04:29:22.348Z,0.50
2023-03-10T04:30:22.315Z,1.30
2023-03-10T04:31:22.392Z,1.10
2023-03-10T04:32:22.331Z,1.50
2023-03-10T04:33:22.300Z,1.80
2023-03-10T04:34:22.314Z,0.70
2023-03-10T04:35:22.283Z,1.40
2023-03-10T04:36:22.280Z,2.00
2023-03-10T04:37:22.271Z,1.30
2023-03-10T04:38:22.261Z,1.60
2023-03-10T04:39:22.289Z,3.90
2023-03-10T04:40:22.250Z,1.80
2023-03-10T04:41:22.236Z,0.80
2023-03-10T04:42:22.216Z,1.10
2023-03-10T04:43:23.223Z,1.50
2023-03-10T04:44:30.982Z,0.90
2023-03-10T04:45:24.210Z,1.70
2023-03-10T04:46:22.206Z,0.70
2023-03-10T04:47:22.192Z,3.40
2023-03-10T04:48:22.187Z,1.30
2023-03-10T04:49:22.198Z,2.10
2023-03-10T04:50:22.163Z,1.90
2023-03-10T04:51:22.163Z,2.20
2023-03-10T04:52:22.154Z,3.70
2023-03-10T04:53:22.143Z,2.80
2023-03-10T04:54:22.164Z,1.80
2023-03-10T04:55:22.135Z,2.00
2023-03-10T04:56:22.141Z,2.10
2023-03-10T04:57:22.110Z,2.60
2023-03-10T04:58:22.126Z,1.80
2023-03-10T04:59:22.135Z,3.70
2023-03-10T05:00:22.151Z,2.90
2023-03-10T05:01:22.112Z,2.80
2023-03-10T05:02:22.077Z,2.10
2023-03-10T05:03:22.070Z,4.30
2023-03-10T05:04:22.211Z,1.90
2023-03-10T05:05:23.060Z,3.00
2023-03-10T05:06:22.047Z,1.40
2023-03-10T05:07:22.039Z,3.20
2023-03-10T05:08:22.032Z,4.20
2023-03-10T05:09:22.055Z,1.90
2023-03-10T05:10:22.006Z,1.70
2023-03-10T05:11:22.001Z,3.00
2023-03-10T05:12:22.000Z,2.90
2023-03-10T05:13:21.991Z,3.80
2023-03-10T05:14:22.007Z,3.50
2023-03-10T05:15:21.976Z,1.60
2023-03-10T05:16:22.075Z,2.80
2023-03-10T05:17:21.960Z,2.80
2023-03-10T05:18:21.950Z,6.00
2023-03-10T05:19:21.963Z,2.10
2023-03-10T05:20:21.930Z,3.50
2023-03-10T05:21:22.025Z,3.10
2023-03-10T05:22:21.912Z,2.80
2023-03-10T05:23:21.905Z,2.70
2023-03-10T05:24:21.919Z,2.60
2023-03-10T05:25:21.891Z,1.30
2023-03-10T05:26:21.888Z,3.70
2023-03-10T05:27:21.922Z,2.20
2023-03-10T05:28:21.867Z,2.00
2023-03-10T05:29:21.889Z,1.50
2023-03-10T05:30:21.850Z,5.20
2023-03-10T05:31:21.868Z,2.40
2023-03-10T05:32:21.881Z,3.60
2023-03-10T05:33:21.930Z,3.50
2023-03-10T05:34:21.860Z,1.80
2023-03-10T05:35:21.802Z,3.90
2023-03-10T05:36:21.800Z,3.50
2023-03-10T05:37:21.785Z,2.90
2023-03-10T05:38:21.779Z,3.00
2023-03-10T05:39:21.820Z,3.30
2023-03-10T05:40:21.766Z,4.10
2023-03-10T05:41:21.765Z,1.70
2023-03-10T05:42:21.756Z,3.50
2023-03-10T05:43:21.744Z,3.60
2023-03-10T05:44:21.742Z,3.30
2023-03-10T05:45:21.761Z,1.90
2023-03-10T05:46:21.758Z,2.00
2023-03-10T05:47:21.716Z,4.80
2023-03-10T05:48:21.724Z,2.60
2023-03-10T05:49:21.712Z,2.30
2023-03-10T05:50:21.720Z,2.00
2023-03-10T05:51:21.683Z,1.30
2023-03-10T05:52:21.668Z,3.20
2023-03-10T05:53:21.661Z,3.10
2023-03-10T05:54:21.656Z,1.70
2023-03-10T05:55:21.666Z,2.00
2023-03-10T05:56:21.637Z,2.70
2023-03-10T05:57:21.661Z,3.10
2023-03-10T05:58:21.618Z,1.90
2023-03-10T05:59:21.611Z,3.60
2023-03-10T06:00:21.632Z,3.90
2023-03-10T06:01:21.594Z,2.50
2023-03-10T06:02:21.617Z,1.40
2023-03-10T06:03:21.734Z,3.70
2023-03-10T06:04:22.622Z,4.00
2023-03-10T06:05:21.592Z,2.60
2023-03-10T06:06:21.559Z,1.40
2023-03-10T06:07:21.558Z,1.90
2023-03-10T06:08:21.559Z,4.00
2023-03-10T06:09:21.538Z,2.20
2023-03-10T06:10:21.550Z,3.50
2023-03-10T06:11:21.517Z,2.90
2023-03-10T06:12:21.506Z,2.50
2023-03-10T06:13:21.504Z,3.60
2023-03-10T06:14:21.495Z,3.60
2023-03-10T06:15:21.514Z,2.00
2023-03-10T06:16:21.552Z,3.70
2023-03-10T06:17:21.482Z,1.80
2023-03-10T06:18:21.473Z,3.60
2023-03-10T06:19:21.470Z,2.00
2023-03-10T06:20:21.488Z,2.40
2023-03-10T06:21:21.447Z,1.90
2023-03-10T06:22:21.431Z,2.70
2023-03-10T06:23:21.460Z,2.90
2023-03-10T06:24:21.420Z,2.50
2023-03-10T06:25:21.439Z,2.30
2023-03-10T06:26:21.396Z,1.20
2023-03-10T06:27:21.395Z,2.00
2023-03-10T06:28:21.389Z,3.90
2023-03-10T06:29:21.380Z,2.00
2023-03-10T06:30:21.402Z,1.60
2023-03-10T06:31:21.459Z,2.30
2023-03-10T06:32:21.401Z,1.20
2023-03-10T06:33:21.356Z,2.40
2023-03-10T06:34:21.359Z,5.30
2023-03-10T06:35:21.364Z,2.50
2023-03-10T06:36:21.353Z,4.50
2023-03-10T06:37:21.348Z,4.00
2023-03-10T06:38:21.311Z,3.90
2023-03-10T06:39:21.336Z,3.70
2023-03-10T06:40:21.326Z,4.70
2023-03-10T06:41:21.293Z,4.80
2023-03-10T06:42:21.284Z,2.50
2023-03-10T06:43:21.290Z,2.20
2023-03-10T06:44:21.274Z,2.50
2023-03-10T06:45:21.286Z,4.10
2023-03-10T06:46:21.295Z,5.70
2023-03-10T06:47:21.251Z,4.90
2023-03-10T06:48:21.240Z,4.20
2023-03-10T06:49:21.232Z,3.70
2023-03-10T06:50:21.256Z,4.10
2023-03-10T06:51:21.225Z,4.00
2023-03-10T06:52:21.207Z,4.20
2023-03-10T06:53:21.199Z,7.00
2023-03-10T06:54:21.186Z,8.20
2023-03-10T06:55:21.206Z,5.60
2023-03-10T06:56:21.173Z,3.90
2023-03-10T06:57:21.197Z,6.40
2023-03-10T06:58:22.157Z,3.40
2023-03-10T06:59:21.143Z,2.20
2023-03-10T07:00:21.173Z,5.00
2023-03-10T07:01:21.268Z,4.90
2023-03-10T07:02:21.129Z,6.70
2023-03-10T07:03:21.125Z,4.10
2023-03-10T07:04:21.150Z,4.10
2023-03-10T07:05:21.145Z,4.70
2023-03-10T07:06:21.090Z,3.40
2023-03-10T07:07:21.095Z,3.70
2023-03-10T07:08:21.085Z,4.20
2023-03-10T07:09:21.074Z,5.20
2023-03-10T07:10:21.086Z,4.00
2023-03-10T07:11:21.056Z,2.40
2023-03-10T07:12:21.056Z,3.20
2023-03-10T07:13:21.034Z,5.10
2023-03-10T07:14:21.027Z,4.60
2023-03-10T07:15:21.049Z,4.20
2023-03-10T07:16:21.051Z,5.40
2023-03-10T07:17:21.005Z,6.80
2023-03-10T07:18:21.000Z,5.40
2023-03-10T07:19:20.995Z,7.10
2023-03-10T07:20:21.002Z,5.20
2023-03-10T07:21:20.972Z,3.10
2023-03-10T07:22:20.965Z,5.70
2023-03-10T07:23:20.960Z,4.90
2023-03-10T07:24:20.945Z,4.20
2023-03-10T07:25:20.967Z,3.00
2023-03-10T07:26:20.941Z,5.30
2023-03-10T07:27:20.929Z,3.70
2023-03-10T07:28:20.916Z,4.80
2023-03-10T07:29:20.909Z,6.60
2023-03-10T07:30:20.931Z,4.50
2023-03-10T07:31:21.957Z,6.60
2023-03-10T07:32:20.902Z,4.80
2023-03-10T07:33:20.877Z,3.80
2023-03-10T07:34:20.870Z,3.70
2023-03-10T07:35:20.889Z,3.60
2023-03-10T07:36:20.910Z,3.20
2023-03-10T07:37:20.853Z,4.30
2023-03-10T07:38:20.856Z,3.60
2023-03-10T07:39:20.844Z,5.40
2023-03-10T07:40:20.857Z,5.70
2023-03-10T07:41:20.821Z,4.40
2023-03-10T07:42:20.821Z,5.30
2023-03-10T07:43:20.808Z,7.00
2023-03-10T07:44:20.827Z,4.20
2023-03-10T07:45:20.817Z,4.90
2023-03-10T07:46:20.856Z,4.60
2023-03-10T07:47:20.776Z,5.20
2023-03-10T07:48:20.769Z,5.00
2023-03-10T07:49:22.264Z,7.30
2023-03-10T07:50:21.801Z,4.90
2023-03-10T07:51:20.754Z,3.00
2023-03-10T07:52:20.748Z,7.20
2023-03-10T07:53:20.731Z,7.70
2023-03-10T07:54:20.723Z,5.90
2023-03-10T07:55:20.743Z,4.40
2023-03-10T07:56:20.706Z,4.60
2023-03-10T07:57:20.692Z,4.30
2023-03-10T07:58:20.692Z,5.60
2023-03-10T07:59:20.680Z,7.60
2023-03-10T08:00:20.701Z,3.50
2023-03-10T08:01:20.692Z,5.20
2023-03-10T08:02:20.683Z,7.40
2023-03-10T08:03:20.654Z,3.60
2023-03-10T08:04:20.763Z,6.00
2023-03-10T08:05:20.711Z,3.40
2023-03-10T08:06:20.632Z,4.20
2023-03-10T08:07:20.618Z,4.20
2023-03-10T08:08:20.609Z,2.60
2023-03-10T08:09:20.610Z,4.40
2023-03-10T08:10:20.623Z,7.50
2023-03-10T08:11:20.589Z,4.70
2023-03-10T08:12:20.577Z,2.20
2023-03-10T08:13:20.717Z,4.00
2023-03-10T08:14:21.143Z,3.50
2023-03-10T08:15:21.574Z,3.90
2023-03-10T08:16:20.622Z,6.80
2023-03-10T08:17:20.561Z,3.00
2023-03-10T08:18:20.535Z,4.80
2023-03-10T08:19:20.524Z,4.40
2023-03-10T08:20:20.540Z,2.60
2023-03-10T08:21:20.508Z,3.80
2023-03-10T08:22:22.552Z,4.90
2023-03-10T08:23:21.488Z,4.40
2023-03-10T08:24:20.496Z,3.90
2023-03-10T08:25:20.499Z,4.20
2023-03-10T08:26:20.477Z,3.30
2023-03-10T08:27:20.457Z,5.40
2023-03-10T08:28:20.451Z,3.30
2023-03-10T08:29:20.454Z,4.20
2023-03-10T08:30:20.477Z,3.50
2023-03-10T08:31:20.524Z,4.60
2023-03-10T08:32:20.456Z,3.30
2023-03-10T08:33:20.410Z,4.30
2023-03-10T08:34:20.399Z,4.00
2023-03-10T08:35:20.386Z,6.20
2023-03-10T08:36:20.477Z,4.00
2023-03-10T08:37:20.372Z,4.50
2023-03-10T08:38:20.363Z,3.70
2023-03-10T08:39:20.377Z,4.40
2023-03-10T08:40:20.352Z,1.70
2023-03-10T08:41:20.377Z,3.20
2023-03-10T08:42:20.336Z,4.90
2023-03-10T08:43:20.325Z,2.70
2023-03-10T08:44:20.322Z,5.40
2023-03-10T08:45:20.315Z,7.90
2023-03-10T08:46:20.380Z,3.20
2023-03-10T08:47:20.307Z,3.40
2023-03-10T08:48:20.287Z,3.60
2023-03-10T08:49:20.284Z,4.70
2023-03-10T08:50:20.274Z,4.50
2023-03-10T08:51:20.289Z,3.90
2023-03-10T08:52:20.259Z,2.70
2023-03-10T08:53:20.255Z,2.80
2023-03-10T08:54:20.246Z,5.40
2023-03-10T08:55:20.236Z,5.60
2023-03-10T08:56:20.255Z,2.80
2023-03-10T08:57:20.222Z,3.00
2023-03-10T08:58:20.218Z,3.80
2023-03-10T08:59:21.210Z,6.80
2023-03-10T09:00:20.198Z,3.90
2023-03-10T09:01:20.271Z,4.20
2023-03-10T09:02:20.304Z,5.90
2023-03-10T09:03:20.246Z,4.40
2023-03-10T09:04:20.176Z,2.70
2023-03-10T09:05:21.730Z,4.50
2023-03-10T09:06:21.179Z,3.70
2023-03-10T09:07:20.155Z,5.60
2023-03-10T09:08:20.138Z,4.70
2023-03-10T09:09:20.138Z,4.10
2023-03-10T09:10:20.124Z,4.30
2023-03-10T09:11:20.152Z,5.50
2023-03-10T09:12:20.118Z,4.80
2023-03-10T09:13:20.090Z,5.10
2023-03-10T09:14:20.086Z,4.70
2023-03-10T09:15:20.085Z,4.90
2023-03-10T09:16:20.148Z,6.50
2023-03-10T09:17:20.064Z,3.80
2023-03-10T09:18:20.068Z,6.00
2023-03-10T09:19:20.066Z,4.30
2023-03-10T09:20:20.039Z,7.70
2023-03-10T09:21:20.057Z,5.50
2023-03-10T09:22:20.033Z,5.90
2023-03-10T09:23:20.020Z,4.40
2023-03-10T09:24:20.029Z,6.00
2023-03-10T09:25:20.001Z,3.50
2023-03-10T09:26:20.015Z,4.60
2023-03-10T09:27:19.984Z,5.00
2023-03-10T09:28:19.993Z,4.40
2023-03-10T09:29:23.068Z,5.40
2023-03-10T09:30:20.962Z,3.30
2023-03-10T09:31:20.010Z,5.60
2023-03-10T09:32:20.098Z,6.50
2023-03-10T09:33:19.969Z,5.20
2023-03-10T09:34:19.934Z,5.20
2023-03-10T09:35:19.998Z,5.30
2023-03-10T09:36:19.956Z,3.50
2023-03-10T09:37:19.911Z,4.10
2023-03-10T09:38:19.910Z,4.10
2023-03-10T09:39:19.891Z,4.90
2023-03-10T09:40:19.879Z,3.80
2023-03-10T09:41:19.907Z,2.80
2023-03-10T09:42:29.178Z,2.30
2023-03-10T09:43:21.870Z,4.20
2023-03-10T09:44:19.857Z,4.00
2023-03-10T09:45:19.844Z,3.20
2023-03-10T09:46:19.886Z,4.40
2023-03-10T09:47:20.293Z,3.60
2023-03-10T09:48:20.828Z,3.30
2023-03-10T09:49:19.814Z,5.00
2023-03-10T09:50:19.816Z,2.40
2023-03-10T09:51:19.828Z,4.80
2023-03-10T09:52:19.792Z,3.50
2023-03-10T09:53:19.787Z,2.40
2023-03-10T09:54:19.777Z,6.70
2023-03-10T09:55:19.771Z,3.90
2023-03-10T09:56:19.790Z,4.10
2023-03-10T09:57:19.759Z,2.60
2023-03-10T09:58:19.749Z,1.80
2023-03-10T09:59:19.736Z,5.50
2023-03-10T10:00:19.730Z,5.10
2023-03-10T10:01:19.748Z,4.00
2023-03-10T10:02:19.720Z,3.70
2023-03-10T10:03:19.738Z,4.30
2023-03-10T10:04:19.766Z,5.60
2023-03-10T10:05:19.698Z,4.10
2023-03-10T10:06:19.716Z,5.60
2023-03-10T10:07:19.678Z,3.70
2023-03-10T10:08:19.694Z,3.60
2023-03-10T10:09:19.662Z,4.00
2023-03-10T10:10:19.651Z,5.00
2023-03-10T10:11:19.679Z,4.40
2023-03-10T10:12:19.667Z,3.80
2023-03-10T10:13:19.625Z,4.50
2023-03-10T10:14:29.330Z,4.00
2023-03-10T10:15:21.638Z,5.40
2023-03-10T10:16:33.503Z,6.10
2023-03-10T10:17:21.629Z,4.00
2023-03-10T10:18:22.087Z,6.50
2023-03-10T10:19:20.574Z,4.70
2023-03-10T10:20:19.569Z,3.90
2023-03-10T10:21:19.557Z,4.30
2023-03-10T10:22:19.582Z,3.60
2023-03-10T10:23:19.552Z,6.20
2023-03-10T10:24:19.533Z,3.80
2023-03-10T10:25:19.557Z,4.60
2023-03-10T10:26:19.532Z,4.90
2023-03-10T10:27:21.616Z,7.00
2023-03-10T10:28:20.507Z,5.80
2023-03-10T10:29:19.545Z,7.80
2023-03-10T10:30:20.001Z,5.80
2023-03-10T10:31:19.589Z,4.90
2023-03-10T10:32:19.579Z,4.80
2023-03-10T10:33:19.464Z,5.20
2023-03-10T10:34:19.890Z,3.80
2023-03-10T10:35:20.448Z,3.70
2023-03-10T10:36:19.484Z,2.30
2023-03-10T10:37:19.469Z,3.70
2023-03-10T10:38:19.426Z,6.50
2023-03-10T10:39:19.419Z,6.70
2023-03-10T10:40:19.418Z,4.30
2023-03-10T10:41:19.408Z,2.90
2023-03-10T10:42:19.424Z,3.70
2023-03-10T10:43:19.395Z,3.10
2023-03-10T10:44:19.385Z,4.40
2023-03-10T10:45:19.368Z,5.40
2023-03-10T10:46:19.409Z,4.10
2023-03-10T10:47:19.377Z,3.90
2023-03-10T10:48:19.347Z,2.50
2023-03-10T10:49:19.339Z,3.80
2023-03-10T10:50:19.340Z,4.20
2023-03-10T10:51:19.328Z,4.90
2023-03-10T10:52:19.350Z,5.10
2023-03-10T10:53:19.326Z,7.50
2023-03-10T10:54:19.310Z,5.40
2023-03-10T10:55:19.295Z,4.90
2023-03-10T10:56:19.300Z,4.70
2023-03-10T10:57:19.316Z,3.40
2023-03-10T10:58:19.268Z,4.30
2023-03-10T10:59:19.274Z,2.10
2023-03-10T11:00:19.290Z,4.30
2023-03-10T11:01:19.270Z,2.50
2023-03-10T11:02:19.315Z,3.60
2023-03-10T11:03:19.236Z,2.10
2023-03-10T11:04:19.229Z,4.40
2023-03-10T11:05:19.219Z,4.30
2023-03-10T11:06:19.209Z,3.70
2023-03-10T11:07:19.221Z,3.90
2023-03-10T11:08:19.211Z,4.10
2023-03-10T11:09:19.214Z,3.20
2023-03-10T11:10:19.182Z,1.60
2023-03-10T11:11:19.181Z,3.10
2023-03-10T11:12:19.190Z,2.40
2023-03-10T11:13:19.148Z,2.20
2023-03-10T11:14:19.143Z,3.10
2023-03-10T11:15:19.139Z,3.60
2023-03-10T11:16:19.171Z,1.30
2023-03-10T11:17:19.151Z,2.60
2023-03-10T11:18:19.113Z,1.50
2023-03-10T11:19:19.122Z,1.20
2023-03-10T11:20:19.088Z,1.30
2023-03-10T11:21:19.092Z,3.90
2023-03-10T11:22:19.078Z,1.50
2023-03-10T11:23:19.096Z,1.70
2023-03-10T11:24:19.067Z,2.10
2023-03-10T11:25:19.061Z,2.70
2023-03-10T11:26:19.066Z,2.90
2023-03-10T11:27:19.049Z,0.90
2023-03-10T11:28:19.081Z,2.00
2023-03-10T11:29:19.046Z,2.70
2023-03-10T11:30:19.106Z,2.30
2023-03-10T11:31:19.072Z,3.10
2023-03-10T11:32:19.038Z,3.40
2023-03-10T11:33:19.018Z,3.40
2023-03-10T11:34:18.983Z,2.00
2023-03-10T11:35:18.980Z,5.00
2023-03-10T11:36:19.023Z,1.60
2023-03-10T11:37:18.970Z,1.50
2023-03-10T11:38:19.039Z,2.70
2023-03-10T11:39:18.953Z,2.20
2023-03-10T11:40:18.961Z,2.90
2023-03-10T11:41:18.941Z,2.70
2023-03-10T11:42:18.932Z,2.40
2023-03-10T11:43:18.938Z,3.70
2023-03-10T11:44:18.917Z,3.00
2023-03-10T11:45:18.900Z,2.00
2023-03-10T11:46:18.922Z,2.50
2023-03-10T11:47:18.917Z,3.20
2023-03-10T11:48:18.912Z,2.10
2023-03-10T11:49:18.879Z,4.20
2023-03-10T11:50:18.896Z,5.90
2023-03-10T11:51:18.847Z,6.00
2023-03-10T11:52:18.868Z,4.50
2023-03-10T11:53:18.858Z,5.50
2023-03-10T11:54:18.821Z,3.40
2023-03-10T11:55:18.815Z,5.60
2023-03-10T11:56:18.819Z,2.20
2023-03-10T11:57:18.802Z,4.30
2023-03-10T11:58:18.819Z,4.00
2023-03-10T11:59:18.809Z,3.90
2023-03-10T12:00:18.789Z,3.60
2023-03-10T12:01:18.772Z,1.40
2023-03-10T12:02:18.764Z,3.70
2023-03-10T12:03:18.799Z,6.50
2023-03-10T12:04:18.764Z,3.80
2023-03-10T12:05:18.774Z,5.50
2023-03-10T12:06:18.743Z,5.20
2023-03-10T12:07:18.728Z,4.20
2023-03-10T12:08:18.740Z,5.30
2023-03-10T12:09:18.709Z,7.30
2023-03-10T12:10:18.701Z,7.10
2023-03-10T12:11:18.696Z,3.40
2023-03-10T12:12:18.681Z,4.50
2023-03-10T12:13:19.747Z,6.50
2023-03-10T12:14:18.677Z,4.10
2023-03-10T12:15:18.663Z,6.30
2023-03-10T12:16:18.701Z,2.30
2023-03-10T12:17:18.642Z,1.10
2023-03-10T12:18:18.680Z,2.20
2023-03-10T12:19:18.635Z,5.00
2023-03-10T12:20:18.627Z,2.10
2023-03-10T12:21:18.613Z,2.70
2023-03-10T12:22:18.613Z,1.50
2023-03-10T12:23:18.608Z,1.40
2023-03-10T12:24:18.614Z,0.90
2023-03-10T12:25:18.588Z,2.70
2023-03-10T12:26:18.570Z,1.00
2023-03-10T12:27:19.574Z,2.90
2023-03-10T12:28:18.567Z,0.80
2023-03-10T12:29:18.613Z,1.90
2023-03-10T12:30:18.545Z,1.90
2023-03-10T12:31:18.593Z,2.10
2023-03-10T12:32:18.552Z,1.20
2023-03-10T12:33:18.523Z,2.30
2023-03-10T12:34:18.544Z,1.90
2023-03-10T12:35:18.507Z,2.10
2023-03-10T12:36:18.564Z,2.80
2023-03-10T12:37:18.490Z,4.10
2023-03-10T12:38:19.438Z,7.10
2023-03-10T12:39:18.499Z,2.80
2023-03-10T12:40:18.474Z,3.60
2023-03-10T12:41:18.461Z,4.40
2023-03-10T12:42:18.457Z,2.60
2023-03-10T12:43:18.448Z,2.50
2023-03-10T12:44:18.461Z,1.30
2023-03-10T12:45:18.431Z,5.40
2023-03-10T12:46:18.453Z,3.00
2023-03-10T12:47:18.420Z,3.20
2023-03-10T12:48:18.402Z,4.50
2023-03-10T12:49:18.428Z,4.00
2023-03-10T12:50:18.390Z,4.80
2023-03-10T12:51:18.603Z,4.30
2023-03-10T12:52:19.363Z,5.00
2023-03-10T12:53:18.362Z,3.60
2023-03-10T12:54:18.391Z,4.50
2023-03-10T12:55:18.362Z,4.70
2023-03-10T12:56:18.339Z,2.90
2023-03-10T12:57:18.337Z,3.50
2023-03-10T12:58:18.321Z,3.50
2023-03-10T12:59:18.345Z,2.10
2023-03-10T13:00:18.310Z,5.30
2023-03-10T13:01:18.352Z,1.70
2023-03-10T13:02:18.292Z,3.50
2023-03-10T13:03:18.343Z,1.30
2023-03-10T13:04:18.309Z,3.90
2023-03-10T13:05:18.274Z,2.70
2023-03-10T13:06:18.264Z,4.50
2023-03-10T13:07:18.247Z,1.60
2023-03-10T13:08:18.243Z,3.80
2023-03-10T13:09:18.301Z,1.90
2023-03-10T13:10:18.225Z,2.90
2023-03-10T13:11:18.271Z,3.70
2023-03-10T13:12:18.218Z,3.10
2023-03-10T13:13:18.199Z,2.80
2023-03-10T13:14:18.217Z,2.80
2023-03-10T13:15:18.200Z,3.50
2023-03-10T13:16:19.211Z,3.60